sensor_id;sensor_type;location;lat;lon;timestamp;P1;durP1;ratioP1;P2;durP2;ratioP2
74616;SDS011;63123;50.906;4.198;2022-09-30T00:01:22;3.35;;;2.78;;
74616;SDS011;63123;50.906;4.198;2022-09-30T00:03:53;4.00;;;2.70;;
74616;SDS011;63123;50.906;4.198;2022-09-30T00:06:20;3.25;;;2.92;;
74616;SDS011;63123;50.906;4.198;2022-09-30T00:08:47;3.08;;;2.78;;
74616;SDS011;63123;50.906;4.198;2022-09-30T00:11:14;3.00;;;2.63;;
74616;SDS011;63123;50.906;4.198;2022-09-30T00:13:46;3.00;;;2.67;;
74616;SDS011;63123;50.906;4.198;2022-09-30T00:16:13;4.22;;;2.40;;
74616;SDS011;63123;50.906;4.198;2022-09-30T00:18:40;2.85;;;2.63;;
74616;SDS011;63123;50.906;4.198;2022-09-30T00:21:07;3.28;;;2.63;;
74616;SDS011;63123;50.906;4.198;2022-09-30T00:23:34;2.90;;;2.60;;
74616;SDS011;63123;50.906;4.198;2022-09-30T00:26:03;3.35;;;2.75;;
74616;SDS011;63123;50.906;4.198;2022-09-30T00:28:30;2.85;;;2.35;;
74616;SDS011;63123;50.906;4.198;2022-09-30T00:31:00;4.22;;;2.70;;
74616;SDS011;63123;50.906;4.198;2022-09-30T00:33:27;2.97;;;2.63;;
74616;SDS011;63123;50.906;4.198;2022-09-30T00:35:53;3.35;;;2.78;;
74616;SDS011;63123;50.906;4.198;2022-09-30T00:38:19;4.03;;;2.67;;
74616;SDS011;63123;50.906;4.198;2022-09-30T00:40:44;2.97;;;2.78;;
74616;SDS011;63123;50.906;4.198;2022-09-30T00:43:14;2.40;;;2.20;;
74616;SDS011;63123;50.906;4.198;2022-09-30T00:45:53;2.90;;;2.70;;
74616;SDS011;63123;50.906;4.198;2022-09-30T00:48:25;3.08;;;2.78;;
74616;SDS011;63123;50.906;4.198;2022-09-30T00:50:55;3.53;;;2.65;;
74616;SDS011;63123;50.906;4.198;2022-09-30T00:55:58;3.00;;;2.70;;
74616;SDS011;63123;50.906;4.198;2022-09-30T01:01:05;2.72;;;2.53;;
74616;SDS011;63123;50.906;4.198;2022-09-30T01:03:32;2.95;;;2.60;;
74616;SDS011;63123;50.906;4.198;2022-09-30T01:06:02;2.50;;;2.10;;
74616;SDS011;63123;50.906;4.198;2022-09-30T01:08:29;3.17;;;2.47;;
74616;SDS011;63123;50.906;4.198;2022-09-30T01:10:57;3.15;;;2.55;;
74616;SDS011;63123;50.906;4.198;2022-09-30T01:13:23;2.45;;;2.25;;
74616;SDS011;63123;50.906;4.198;2022-09-30T01:15:56;2.50;;;2.30;;
74616;SDS011;63123;50.906;4.198;2022-09-30T01:24:12;3.35;;;3.05;;
74616;SDS011;63123;50.906;4.198;2022-09-30T01:33:03;3.10;;;2.33;;
74616;SDS011;63123;50.906;4.198;2022-09-30T01:38:48;4.30;;;2.92;;
74616;SDS011;63123;50.906;4.198;2022-09-30T01:41:26;5.28;;;2.88;;
74616;SDS011;63123;50.906;4.198;2022-09-30T01:49:38;3.67;;;2.70;;
74616;SDS011;63123;50.906;4.198;2022-09-30T01:57:16;3.75;;;2.80;;
74616;SDS011;63123;50.906;4.198;2022-09-30T01:59:52;3.22;;;2.78;;
74616;SDS011;63123;50.906;4.198;2022-09-30T02:02:25;3.05;;;2.65;;
74616;SDS011;63123;50.906;4.198;2022-09-30T02:05:00;2.53;;;2.30;;
74616;SDS011;63123;50.906;4.198;2022-09-30T02:07:40;3.28;;;2.42;;
74616;SDS011;63123;50.906;4.198;2022-09-30T02:10:13;2.70;;;2.50;;
74616;SDS011;63123;50.906;4.198;2022-09-30T02:12:49;2.88;;;2.38;;
74616;SDS011;63123;50.906;4.198;2022-09-30T02:15:21;3.45;;;3.15;;
74616;SDS011;63123;50.906;4.198;2022-09-30T02:17:54;2.88;;;2.50;;
74616;SDS011;63123;50.906;4.198;2022-09-30T02:20:25;3.08;;;2.78;;
74616;SDS011;63123;50.906;4.198;2022-09-30T02:23:05;2.85;;;2.50;;
74616;SDS011;63123;50.906;4.198;2022-09-30T02:25:40;3.92;;;2.60;;
74616;SDS011;63123;50.906;4.198;2022-09-30T02:28:10;3.67;;;3.38;;
74616;SDS011;63123;50.906;4.198;2022-09-30T02:30:41;2.80;;;2.47;;
74616;SDS011;63123;50.906;4.198;2022-09-30T02:33:12;2.70;;;2.50;;
74616;SDS011;63123;50.906;4.198;2022-09-30T02:35:46;2.78;;;2.58;;
74616;SDS011;63123;50.906;4.198;2022-09-30T02:38:18;2.42;;;2.22;;
74616;SDS011;63123;50.906;4.198;2022-09-30T02:40:57;2.80;;;2.50;;
74616;SDS011;63123;50.906;4.198;2022-09-30T02:43:30;2.85;;;2.65;;
74616;SDS011;63123;50.906;4.198;2022-09-30T02:53:37;2.78;;;2.53;;
74616;SDS011;63123;50.906;4.198;2022-09-30T02:59:07;2.92;;;2.72;;
74616;SDS011;63123;50.906;4.198;2022-09-30T03:01:33;2.38;;;2.17;;
74616;SDS011;63123;50.906;4.198;2022-09-30T03:04:00;2.75;;;2.55;;
74616;SDS011;63123;50.906;4.198;2022-09-30T03:06:30;3.22;;;2.20;;
74616;SDS011;63123;50.906;4.198;2022-09-30T03:08:56;2.58;;;2.38;;
74616;SDS011;63123;50.906;4.198;2022-09-30T03:11:22;2.53;;;2.33;;
74616;SDS011;63123;50.906;4.198;2022-09-30T03:30:14;2.75;;;2.55;;
74616;SDS011;63123;50.906;4.198;2022-09-30T03:35:16;2.97;;;2.78;;
74616;SDS011;63123;50.906;4.198;2022-09-30T03:38:01;2.63;;;2.42;;
74616;SDS011;63123;50.906;4.198;2022-09-30T03:43:32;2.85;;;2.63;;
74616;SDS011;63123;50.906;4.198;2022-09-30T03:46:20;5.65;;;3.92;;
74616;SDS011;63123;50.906;4.198;2022-09-30T03:48:48;2.20;;;2.05;;
74616;SDS011;63123;50.906;4.198;2022-09-30T03:51:16;2.70;;;2.50;;
74616;SDS011;63123;50.906;4.198;2022-09-30T03:53:42;2.60;;;2.40;;
74616;SDS011;63123;50.906;4.198;2022-09-30T03:56:10;2.53;;;2.30;;
74616;SDS011;63123;50.906;4.198;2022-09-30T03:58:37;3.00;;;2.80;;
74616;SDS011;63123;50.906;4.198;2022-09-30T04:01:10;2.88;;;2.22;;
74616;SDS011;63123;50.906;4.198;2022-09-30T04:03:44;2.70;;;2.50;;
74616;SDS011;63123;50.906;4.198;2022-09-30T04:06:11;2.55;;;2.35;;
74616;SDS011;63123;50.906;4.198;2022-09-30T04:08:37;3.00;;;2.70;;
74616;SDS011;63123;50.906;4.198;2022-09-30T04:11:03;2.88;;;2.45;;
74616;SDS011;63123;50.906;4.198;2022-09-30T04:13:29;3.38;;;3.08;;
74616;SDS011;63123;50.906;4.198;2022-09-30T04:15:55;2.92;;;2.65;;
74616;SDS011;63123;50.906;4.198;2022-09-30T04:18:21;2.58;;;2.38;;
74616;SDS011;63123;50.906;4.198;2022-09-30T04:20:46;2.92;;;2.72;;
74616;SDS011;63123;50.906;4.198;2022-09-30T04:23:12;2.88;;;2.67;;
74616;SDS011;63123;50.906;4.198;2022-09-30T04:25:38;2.80;;;2.60;;
74616;SDS011;63123;50.906;4.198;2022-09-30T04:28:03;2.60;;;2.40;;
74616;SDS011;63123;50.906;4.198;2022-09-30T04:30:29;2.88;;;2.60;;
74616;SDS011;63123;50.906;4.198;2022-09-30T04:32:54;2.92;;;2.72;;
74616;SDS011;63123;50.906;4.198;2022-09-30T04:35:20;3.15;;;2.63;;
74616;SDS011;63123;50.906;4.198;2022-09-30T04:37:46;2.75;;;2.55;;
74616;SDS011;63123;50.906;4.198;2022-09-30T04:40:12;2.53;;;2.33;;
74616;SDS011;63123;50.906;4.198;2022-09-30T04:42:39;2.60;;;2.40;;
74616;SDS011;63123;50.906;4.198;2022-09-30T04:45:07;2.83;;;2.63;;
74616;SDS011;63123;50.906;4.198;2022-09-30T04:47:37;2.25;;;2.05;;
74616;SDS011;63123;50.906;4.198;2022-09-30T04:50:03;2.67;;;2.47;;
74616;SDS011;63123;50.906;4.198;2022-09-30T04:52:29;2.50;;;2.30;;
74616;SDS011;63123;50.906;4.198;2022-09-30T04:54:55;4.28;;;2.45;;
74616;SDS011;63123;50.906;4.198;2022-09-30T04:57:22;3.13;;;2.83;;
74616;SDS011;63123;50.906;4.198;2022-09-30T04:59:48;2.60;;;2.20;;
74616;SDS011;63123;50.906;4.198;2022-09-30T05:02:14;3.22;;;3.03;;
74616;SDS011;63123;50.906;4.198;2022-09-30T05:04:40;3.17;;;2.88;;
74616;SDS011;63123;50.906;4.198;2022-09-30T05:07:06;2.00;;;1.90;;
74616;SDS011;63123;50.906;4.198;2022-09-30T05:09:33;3.05;;;2.85;;
74616;SDS011;63123;50.906;4.198;2022-09-30T05:11:59;2.85;;;2.65;;
74616;SDS011;63123;50.906;4.198;2022-09-30T05:14:27;2.78;;;2.58;;
74616;SDS011;63123;50.906;4.198;2022-09-30T05:16:53;2.70;;;2.50;;
74616;SDS011;63123;50.906;4.198;2022-09-30T05:19:19;2.60;;;2.40;;
74616;SDS011;63123;50.906;4.198;2022-09-30T05:21:44;3.03;;;2.83;;
74616;SDS011;63123;50.906;4.198;2022-09-30T05:24:10;2.58;;;2.38;;
74616;SDS011;63123;50.906;4.198;2022-09-30T05:26:36;2.53;;;2.33;;
74616;SDS011;63123;50.906;4.198;2022-09-30T05:29:02;2.78;;;2.58;;
74616;SDS011;63123;50.906;4.198;2022-09-30T05:31:27;2.67;;;2.30;;
74616;SDS011;63123;50.906;4.198;2022-09-30T05:33:53;2.63;;;2.42;;
74616;SDS011;63123;50.906;4.198;2022-09-30T05:36:19;2.40;;;2.20;;
74616;SDS011;63123;50.906;4.198;2022-09-30T05:38:44;2.60;;;2.40;;
74616;SDS011;63123;50.906;4.198;2022-09-30T05:41:14;3.10;;;2.80;;
74616;SDS011;63123;50.906;4.198;2022-09-30T05:43:40;2.53;;;2.33;;
74616;SDS011;63123;50.906;4.198;2022-09-30T05:46:09;2.80;;;2.60;;
74616;SDS011;63123;50.906;4.198;2022-09-30T05:48:34;2.33;;;2.13;;
74616;SDS011;63123;50.906;4.198;2022-09-30T05:51:00;2.60;;;2.40;;
74616;SDS011;63123;50.906;4.198;2022-09-30T05:53:26;2.53;;;2.33;;
74616;SDS011;63123;50.906;4.198;2022-09-30T05:55:53;2.92;;;2.72;;
74616;SDS011;63123;50.906;4.198;2022-09-30T05:58:19;2.85;;;2.25;;
74616;SDS011;63123;50.906;4.198;2022-09-30T06:00:46;2.70;;;2.50;;
74616;SDS011;63123;50.906;4.198;2022-09-30T06:03:13;2.25;;;2.05;;
74616;SDS011;63123;50.906;4.198;2022-09-30T06:05:39;2.83;;;2.63;;
74616;SDS011;63123;50.906;4.198;2022-09-30T06:08:05;2.50;;;2.30;;
74616;SDS011;63123;50.906;4.198;2022-09-30T06:10:33;3.17;;;2.90;;
74616;SDS011;63123;50.906;4.198;2022-09-30T06:13:01;2.42;;;2.22;;
74616;SDS011;63123;50.906;4.198;2022-09-30T06:15:28;2.97;;;2.72;;
74616;SDS011;63123;50.906;4.198;2022-09-30T06:17:54;2.38;;;2.17;;
74616;SDS011;63123;50.906;4.198;2022-09-30T06:20:20;2.70;;;2.40;;
74616;SDS011;63123;50.906;4.198;2022-09-30T06:22:46;3.00;;;2.80;;
74616;SDS011;63123;50.906;4.198;2022-09-30T06:25:12;2.38;;;2.17;;
74616;SDS011;63123;50.906;4.198;2022-09-30T06:27:38;2.95;;;2.60;;
74616;SDS011;63123;50.906;4.198;2022-09-30T06:30:07;3.08;;;2.83;;
74616;SDS011;63123;50.906;4.198;2022-09-30T06:32:33;2.80;;;2.60;;
74616;SDS011;63123;50.906;4.198;2022-09-30T06:34:59;2.50;;;2.30;;
74616;SDS011;63123;50.906;4.198;2022-09-30T06:37:27;2.38;;;2.17;;
74616;SDS011;63123;50.906;4.198;2022-09-30T06:39:52;2.40;;;2.20;;
74616;SDS011;63123;50.906;4.198;2022-09-30T06:42:18;2.40;;;2.20;;
74616;SDS011;63123;50.906;4.198;2022-09-30T06:44:44;2.50;;;2.30;;
74616;SDS011;63123;50.906;4.198;2022-09-30T06:47:11;2.22;;;2.03;;
74616;SDS011;63123;50.906;4.198;2022-09-30T06:49:38;2.47;;;2.25;;
74616;SDS011;63123;50.906;4.198;2022-09-30T06:52:04;2.63;;;2.42;;
74616;SDS011;63123;50.906;4.198;2022-09-30T06:54:30;2.25;;;2.15;;
74616;SDS011;63123;50.906;4.198;2022-09-30T06:56:55;2.63;;;2.42;;
74616;SDS011;63123;50.906;4.198;2022-09-30T06:59:23;2.80;;;2.60;;
74616;SDS011;63123;50.906;4.198;2022-09-30T07:01:50;2.65;;;2.45;;
74616;SDS011;63123;50.906;4.198;2022-09-30T07:04:15;3.28;;;2.50;;
74616;SDS011;63123;50.906;4.198;2022-09-30T07:06:41;2.78;;;2.58;;
74616;SDS011;63123;50.906;4.198;2022-09-30T07:09:07;2.60;;;2.40;;
74616;SDS011;63123;50.906;4.198;2022-09-30T07:11:34;3.13;;;2.75;;
74616;SDS011;63123;50.906;4.198;2022-09-30T07:14:01;3.67;;;2.40;;
74616;SDS011;63123;50.906;4.198;2022-09-30T07:16:28;2.08;;;1.88;;
74616;SDS011;63123;50.906;4.198;2022-09-30T07:18:56;2.63;;;2.42;;
74616;SDS011;63123;50.906;4.198;2022-09-30T07:21:23;2.50;;;2.30;;
74616;SDS011;63123;50.906;4.198;2022-09-30T07:23:49;3.03;;;2.42;;
74616;SDS011;63123;50.906;4.198;2022-09-30T07:26:20;3.22;;;2.92;;
74616;SDS011;63123;50.906;4.198;2022-09-30T07:28:47;2.75;;;2.55;;
74616;SDS011;63123;50.906;4.198;2022-09-30T07:31:15;2.95;;;2.75;;
74616;SDS011;63123;50.906;4.198;2022-09-30T07:33:43;3.55;;;3.17;;
74616;SDS011;63123;50.906;4.198;2022-09-30T07:36:10;3.17;;;2.88;;
74616;SDS011;63123;50.906;4.198;2022-09-30T07:38:37;3.50;;;3.20;;
74616;SDS011;63123;50.906;4.198;2022-09-30T07:41:09;3.40;;;3.10;;
74616;SDS011;63123;50.906;4.198;2022-09-30T07:43:41;3.75;;;3.17;;
74616;SDS011;63123;50.906;4.198;2022-09-30T07:48:37;3.20;;;3.00;;
74616;SDS011;63123;50.906;4.198;2022-09-30T07:51:12;3.40;;;3.15;;
74616;SDS011;63123;50.906;4.198;2022-09-30T07:53:48;3.47;;;3.28;;
74616;SDS011;63123;50.906;4.198;2022-09-30T07:56:16;3.20;;;2.97;;
74616;SDS011;63123;50.906;4.198;2022-09-30T07:58:43;3.70;;;3.40;;
74616;SDS011;63123;50.906;4.198;2022-09-30T08:01:09;3.25;;;2.95;;
74616;SDS011;63123;50.906;4.198;2022-09-30T08:03:35;3.22;;;3.03;;
74616;SDS011;63123;50.906;4.198;2022-09-30T08:06:13;3.35;;;3.05;;
74616;SDS011;63123;50.906;4.198;2022-09-30T08:08:40;3.15;;;2.95;;
74616;SDS011;63123;50.906;4.198;2022-09-30T08:11:08;3.70;;;3.45;;
74616;SDS011;63123;50.906;4.198;2022-09-30T08:13:35;3.28;;;3.08;;
74616;SDS011;63123;50.906;4.198;2022-09-30T08:16:01;3.70;;;3.45;;
74616;SDS011;63123;50.906;4.198;2022-09-30T08:18:27;3.03;;;2.83;;
74616;SDS011;63123;50.906;4.198;2022-09-30T08:20:53;3.63;;;3.33;;
74616;SDS011;63123;50.906;4.198;2022-09-30T08:23:19;3.50;;;3.20;;
74616;SDS011;63123;50.906;4.198;2022-09-30T08:25:45;3.03;;;2.83;;
74616;SDS011;63123;50.906;4.198;2022-09-30T08:28:11;3.63;;;3.33;;
74616;SDS011;63123;50.906;4.198;2022-09-30T08:30:37;3.60;;;3.30;;
74616;SDS011;63123;50.906;4.198;2022-09-30T08:33:03;3.28;;;3.03;;
74616;SDS011;63123;50.906;4.198;2022-09-30T08:35:29;2.83;;;2.63;;
74616;SDS011;63123;50.906;4.198;2022-09-30T08:37:55;3.40;;;3.10;;
74616;SDS011;63123;50.906;4.198;2022-09-30T08:40:25;3.20;;;2.92;;
74616;SDS011;63123;50.906;4.198;2022-09-30T08:42:57;3.35;;;3.05;;
74616;SDS011;63123;50.906;4.198;2022-09-30T08:53:40;3.25;;;2.95;;
74616;SDS011;63123;50.906;4.198;2022-09-30T08:56:11;3.03;;;2.80;;
74616;SDS011;63123;50.906;4.198;2022-09-30T08:58:47;3.75;;;3.28;;
74616;SDS011;63123;50.906;4.198;2022-09-30T09:03:50;3.28;;;2.90;;
74616;SDS011;63123;50.906;4.198;2022-09-30T09:20:16;2.40;;;2.20;;
74616;SDS011;63123;50.906;4.198;2022-09-30T09:22:46;2.60;;;2.40;;
74616;SDS011;63123;50.906;4.198;2022-09-30T09:25:17;2.70;;;2.50;;
74616;SDS011;63123;50.906;4.198;2022-09-30T09:27:51;3.08;;;2.40;;
74616;SDS011;63123;50.906;4.198;2022-09-30T09:30:21;2.50;;;2.30;;
74616;SDS011;63123;50.906;4.198;2022-09-30T09:32:53;2.65;;;2.45;;
74616;SDS011;63123;50.906;4.198;2022-09-30T09:38:18;2.50;;;2.30;;
74616;SDS011;63123;50.906;4.198;2022-09-30T09:41:03;2.45;;;2.25;;
74616;SDS011;63123;50.906;4.198;2022-09-30T09:46:18;2.20;;;2.00;;
74616;SDS011;63123;50.906;4.198;2022-09-30T09:52:04;2.40;;;2.20;;
74616;SDS011;63123;50.906;4.198;2022-09-30T09:54:39;2.42;;;2.22;;
74616;SDS011;63123;50.906;4.198;2022-09-30T09:57:15;2.35;;;2.15;;
74616;SDS011;63123;50.906;4.198;2022-09-30T10:02:28;1.90;;;1.80;;
74616;SDS011;63123;50.906;4.198;2022-09-30T10:04:56;2.05;;;1.75;;
74616;SDS011;63123;50.906;4.198;2022-09-30T10:07:27;2.33;;;2.13;;
74616;SDS011;63123;50.906;4.198;2022-09-30T10:10:15;1.77;;;1.67;;
74616;SDS011;63123;50.906;4.198;2022-09-30T10:12:42;2.22;;;2.03;;
74616;SDS011;63123;50.906;4.198;2022-09-30T10:15:18;2.25;;;2.05;;
74616;SDS011;63123;50.906;4.198;2022-09-30T10:17:53;2.60;;;2.38;;
74616;SDS011;63123;50.906;4.198;2022-09-30T10:23:01;1.88;;;1.77;;
74616;SDS011;63123;50.906;4.198;2022-09-30T10:25:33;2.20;;;2.00;;
74616;SDS011;63123;50.906;4.198;2022-09-30T10:27:59;1.67;;;1.58;;
74616;SDS011;63123;50.906;4.198;2022-09-30T10:30:34;2.60;;;2.08;;
74616;SDS011;63123;50.906;4.198;2022-09-30T10:33:03;1.77;;;1.67;;
74616;SDS011;63123;50.906;4.198;2022-09-30T10:35:49;2.13;;;1.70;;
74616;SDS011;63123;50.906;4.198;2022-09-30T10:38:24;1.92;;;1.75;;
74616;SDS011;63123;50.906;4.198;2022-09-30T10:40:53;2.05;;;1.77;;
74616;SDS011;63123;50.906;4.198;2022-09-30T10:43:25;2.60;;;2.40;;
74616;SDS011;63123;50.906;4.198;2022-09-30T10:45:54;2.53;;;1.90;;
74616;SDS011;63123;50.906;4.198;2022-09-30T10:48:23;1.77;;;1.65;;
74616;SDS011;63123;50.906;4.198;2022-09-30T10:50:53;2.10;;;1.90;;
74616;SDS011;63123;50.906;4.198;2022-09-30T10:53:22;2.17;;;2.08;;
74616;SDS011;63123;50.906;4.198;2022-09-30T10:55:50;2.00;;;1.90;;
74616;SDS011;63123;50.906;4.198;2022-09-30T11:00:47;1.95;;;1.70;;
74616;SDS011;63123;50.906;4.198;2022-09-30T11:03:19;2.75;;;2.15;;
74616;SDS011;63123;50.906;4.198;2022-09-30T11:05:49;2.35;;;2.15;;
74616;SDS011;63123;50.906;4.198;2022-09-30T11:11:03;2.35;;;2.15;;
74616;SDS011;63123;50.906;4.198;2022-09-30T11:13:52;2.13;;;1.90;;
74616;SDS011;63123;50.906;4.198;2022-09-30T11:25:29;3.10;;;2.28;;
74616;SDS011;63123;50.906;4.198;2022-09-30T11:30:49;2.95;;;1.90;;
74616;SDS011;63123;50.906;4.198;2022-09-30T11:41:53;2.22;;;2.00;;
74616;SDS011;63123;50.906;4.198;2022-09-30T11:47:10;1.85;;;1.67;;
74616;SDS011;63123;50.906;4.198;2022-09-30T11:52:35;1.90;;;1.70;;
74616;SDS011;63123;50.906;4.198;2022-09-30T12:00:28;2.42;;;1.75;;
74616;SDS011;63123;50.906;4.198;2022-09-30T12:02:58;2.70;;;1.92;;
74616;SDS011;63123;50.906;4.198;2022-09-30T12:10:41;1.70;;;1.60;;
74616;SDS011;63123;50.906;4.198;2022-09-30T12:13:23;3.33;;;1.90;;
74616;SDS011;63123;50.906;4.198;2022-09-30T12:15:54;2.00;;;1.63;;
74616;SDS011;63123;50.906;4.198;2022-09-30T12:18:24;1.75;;;1.63;;
74616;SDS011;63123;50.906;4.198;2022-09-30T12:23:43;1.83;;;1.73;;
74616;SDS011;63123;50.906;4.198;2022-09-30T12:26:12;2.75;;;1.90;;
74616;SDS011;63123;50.906;4.198;2022-09-30T12:48:55;1.75;;;1.65;;
74616;SDS011;63123;50.906;4.198;2022-09-30T12:51:33;1.55;;;1.45;;
74616;SDS011;63123;50.906;4.198;2022-09-30T12:54:01;1.73;;;1.63;;
74616;SDS011;63123;50.906;4.198;2022-09-30T12:56:35;2.30;;;1.40;;
74616;SDS011;63123;50.906;4.198;2022-09-30T12:59:04;1.70;;;1.60;;
74616;SDS011;63123;50.906;4.198;2022-09-30T13:01:34;1.65;;;1.55;;
74616;SDS011;63123;50.906;4.198;2022-09-30T13:16:57;1.73;;;1.45;;
74616;SDS011;63123;50.906;4.198;2022-09-30T13:27:28;1.73;;;1.33;;
74616;SDS011;63123;50.906;4.198;2022-09-30T13:30:00;2.15;;;1.38;;
74616;SDS011;63123;50.906;4.198;2022-09-30T13:32:33;3.05;;;1.42;;
74616;SDS011;63123;50.906;4.198;2022-09-30T13:35:02;1.65;;;1.38;;
74616;SDS011;63123;50.906;4.198;2022-09-30T13:40:40;3.15;;;1.70;;
74616;SDS011;63123;50.906;4.198;2022-09-30T13:46:05;1.55;;;1.40;;
74616;SDS011;63123;50.906;4.198;2022-09-30T13:48:35;1.65;;;1.55;;
74616;SDS011;63123;50.906;4.198;2022-09-30T13:51:07;1.15;;;1.05;;
74616;SDS011;63123;50.906;4.198;2022-09-30T13:53:51;1.35;;;1.15;;
74616;SDS011;63123;50.906;4.198;2022-09-30T13:56:40;1.30;;;1.20;;
74616;SDS011;63123;50.906;4.198;2022-09-30T13:59:21;1.20;;;1.10;;
74616;SDS011;63123;50.906;4.198;2022-09-30T14:02:12;1.40;;;1.30;;
74616;SDS011;63123;50.906;4.198;2022-09-30T14:07:56;1.85;;;1.50;;
74616;SDS011;63123;50.906;4.198;2022-09-30T14:10:41;1.40;;;1.30;;
74616;SDS011;63123;50.906;4.198;2022-09-30T14:22:04;1.20;;;1.10;;
74616;SDS011;63123;50.906;4.198;2022-09-30T14:24:33;1.52;;;1.25;;
74616;SDS011;63123;50.906;4.198;2022-09-30T14:29:56;1.35;;;1.25;;
74616;SDS011;63123;50.906;4.198;2022-09-30T14:32:32;1.55;;;1.45;;
74616;SDS011;63123;50.906;4.198;2022-09-30T14:35:06;1.48;;;1.38;;
74616;SDS011;63123;50.906;4.198;2022-09-30T14:37:40;1.30;;;1.20;;
74616;SDS011;63123;50.906;4.198;2022-09-30T14:40:10;1.40;;;1.30;;
74616;SDS011;63123;50.906;4.198;2022-09-30T14:42:40;1.50;;;1.10;;
74616;SDS011;63123;50.906;4.198;2022-09-30T14:45:11;2.15;;;1.67;;
74616;SDS011;63123;50.906;4.198;2022-09-30T14:47:43;1.17;;;1.08;;
74616;SDS011;63123;50.906;4.198;2022-09-30T14:50:46;1.40;;;1.30;;
74616;SDS011;63123;50.906;4.198;2022-09-30T14:53:24;1.67;;;1.23;;
74616;SDS011;63123;50.906;4.198;2022-09-30T14:55:51;1.33;;;1.23;;
74616;SDS011;63123;50.906;4.198;2022-09-30T14:58:21;1.30;;;1.15;;
74616;SDS011;63123;50.906;4.198;2022-09-30T15:00:57;1.33;;;1.23;;
74616;SDS011;63123;50.906;4.198;2022-09-30T15:05:53;1.88;;;1.63;;
74616;SDS011;63123;50.906;4.198;2022-09-30T15:08:20;1.10;;;1.00;;
74616;SDS011;63123;50.906;4.198;2022-09-30T15:10:50;1.50;;;1.40;;
74616;SDS011;63123;50.906;4.198;2022-09-30T15:13:18;2.22;;;1.30;;
74616;SDS011;63123;50.906;4.198;2022-09-30T15:15:46;0.80;;;0.80;;
74616;SDS011;63123;50.906;4.198;2022-09-30T15:18:23;1.38;;;1.00;;
74616;SDS011;63123;50.906;4.198;2022-09-30T15:20:56;1.52;;;1.30;;
74616;SDS011;63123;50.906;4.198;2022-09-30T15:23:29;1.20;;;1.02;;
74616;SDS011;63123;50.906;4.198;2022-09-30T15:25:57;1.67;;;1.10;;
74616;SDS011;63123;50.906;4.198;2022-09-30T15:28:25;1.20;;;1.05;;
74616;SDS011;63123;50.906;4.198;2022-09-30T15:30:51;0.95;;;0.88;;
74616;SDS011;63123;50.906;4.198;2022-09-30T15:33:19;1.05;;;0.95;;
74616;SDS011;63123;50.906;4.198;2022-09-30T15:35:48;1.60;;;0.93;;
74616;SDS011;63123;50.906;4.198;2022-09-30T15:41:00;1.30;;;1.20;;
74616;SDS011;63123;50.906;4.198;2022-09-30T15:46:16;1.20;;;1.10;;
74616;SDS011;63123;50.906;4.198;2022-09-30T15:48:58;1.30;;;1.02;;
74616;SDS011;63123;50.906;4.198;2022-09-30T15:51:41;1.40;;;1.17;;
74616;SDS011;63123;50.906;4.198;2022-09-30T15:56:39;1.75;;;0.98;;
74616;SDS011;63123;50.906;4.198;2022-09-30T15:59:09;0.80;;;0.80;;
74616;SDS011;63123;50.906;4.198;2022-09-30T16:01:41;1.23;;;1.00;;
74616;SDS011;63123;50.906;4.198;2022-09-30T16:04:08;1.25;;;1.02;;
74616;SDS011;63123;50.906;4.198;2022-09-30T16:12:06;1.67;;;0.98;;
74616;SDS011;63123;50.906;4.198;2022-09-30T16:14:43;1.40;;;0.88;;
74616;SDS011;63123;50.906;4.198;2022-09-30T16:17:25;1.00;;;0.80;;
74616;SDS011;63123;50.906;4.198;2022-09-30T16:19:54;0.90;;;0.80;;
74616;SDS011;63123;50.906;4.198;2022-09-30T16:22:32;1.15;;;1.05;;
74616;SDS011;63123;50.906;4.198;2022-09-30T16:27:35;0.95;;;0.80;;
74616;SDS011;63123;50.906;4.198;2022-09-30T16:30:02;0.88;;;0.88;;
74616;SDS011;63123;50.906;4.198;2022-09-30T16:32:29;0.85;;;0.82;;
74616;SDS011;63123;50.906;4.198;2022-09-30T16:34:57;1.17;;;1.05;;
74616;SDS011;63123;50.906;4.198;2022-09-30T16:37:23;0.88;;;0.70;;
74616;SDS011;63123;50.906;4.198;2022-09-30T16:39:49;0.93;;;0.90;;
74616;SDS011;63123;50.906;4.198;2022-09-30T16:42:15;1.17;;;0.93;;
74616;SDS011;63123;50.906;4.198;2022-09-30T16:44:41;0.75;;;0.70;;
74616;SDS011;63123;50.906;4.198;2022-09-30T16:47:12;0.98;;;0.88;;
74616;SDS011;63123;50.906;4.198;2022-09-30T16:49:40;1.00;;;0.90;;
74616;SDS011;63123;50.906;4.198;2022-09-30T16:52:09;1.10;;;1.00;;
74616;SDS011;63123;50.906;4.198;2022-09-30T16:54:35;2.28;;;1.00;;
74616;SDS011;63123;50.906;4.198;2022-09-30T16:57:02;0.90;;;0.88;;
74616;SDS011;63123;50.906;4.198;2022-09-30T16:59:27;0.90;;;0.80;;
74616;SDS011;63123;50.906;4.198;2022-09-30T17:01:56;1.10;;;1.00;;
74616;SDS011;63123;50.906;4.198;2022-09-30T17:04:23;0.77;;;0.77;;
74616;SDS011;63123;50.906;4.198;2022-09-30T17:06:50;1.25;;;1.15;;
74616;SDS011;63123;50.906;4.198;2022-09-30T17:09:15;1.20;;;1.10;;
74616;SDS011;63123;50.906;4.198;2022-09-30T17:11:41;0.90;;;0.90;;
74616;SDS011;63123;50.906;4.198;2022-09-30T17:14:06;1.02;;;0.93;;
74616;SDS011;63123;50.906;4.198;2022-09-30T17:16:32;1.02;;;0.90;;
74616;SDS011;63123;50.906;4.198;2022-09-30T17:18:57;0.93;;;0.80;;
74616;SDS011;63123;50.906;4.198;2022-09-30T17:21:24;1.30;;;1.10;;
74616;SDS011;63123;50.906;4.198;2022-09-30T17:23:50;1.13;;;1.02;;
74616;SDS011;63123;50.906;4.198;2022-09-30T17:26:17;0.80;;;0.80;;
74616;SDS011;63123;50.906;4.198;2022-09-30T17:28:43;0.77;;;0.77;;
74616;SDS011;63123;50.906;4.198;2022-09-30T17:31:09;1.00;;;0.90;;
74616;SDS011;63123;50.906;4.198;2022-09-30T17:33:36;1.00;;;0.90;;
74616;SDS011;63123;50.906;4.198;2022-09-30T17:36:04;1.20;;;1.10;;
74616;SDS011;63123;50.906;4.198;2022-09-30T17:38:31;1.88;;;0.98;;
74616;SDS011;63123;50.906;4.198;2022-09-30T17:40:58;1.77;;;1.23;;
74616;SDS011;63123;50.906;4.198;2022-09-30T17:43:43;1.40;;;1.08;;
74616;SDS011;63123;50.906;4.198;2022-09-30T17:46:10;0.93;;;0.80;;
74616;SDS011;63123;50.906;4.198;2022-09-30T17:48:43;1.40;;;0.90;;
74616;SDS011;63123;50.906;4.198;2022-09-30T17:51:10;1.10;;;1.00;;
74616;SDS011;63123;50.906;4.198;2022-09-30T17:53:36;1.15;;;0.98;;
74616;SDS011;63123;50.906;4.198;2022-09-30T17:56:03;1.10;;;1.00;;
74616;SDS011;63123;50.906;4.198;2022-09-30T17:58:34;1.08;;;1.00;;
74616;SDS011;63123;50.906;4.198;2022-09-30T18:01:04;2.53;;;1.20;;
74616;SDS011;63123;50.906;4.198;2022-09-30T18:03:34;1.20;;;1.10;;
74616;SDS011;63123;50.906;4.198;2022-09-30T18:05:59;1.40;;;1.30;;
74616;SDS011;63123;50.906;4.198;2022-09-30T18:08:25;1.50;;;1.25;;
74616;SDS011;63123;50.906;4.198;2022-09-30T18:10:52;1.10;;;1.00;;
74616;SDS011;63123;50.906;4.198;2022-09-30T18:13:18;1.17;;;1.08;;
74616;SDS011;63123;50.906;4.198;2022-09-30T18:15:44;1.40;;;1.30;;
74616;SDS011;63123;50.906;4.198;2022-09-30T18:18:10;1.27;;;1.17;;
74616;SDS011;63123;50.906;4.198;2022-09-30T18:20:41;1.30;;;1.20;;
74616;SDS011;63123;50.906;4.198;2022-09-30T18:23:08;1.33;;;1.15;;
74616;SDS011;63123;50.906;4.198;2022-09-30T18:25:34;1.35;;;1.00;;
74616;SDS011;63123;50.906;4.198;2022-09-30T18:28:00;1.50;;;1.40;;
74616;SDS011;63123;50.906;4.198;2022-09-30T18:30:26;1.30;;;1.20;;
74616;SDS011;63123;50.906;4.198;2022-09-30T18:32:53;1.13;;;1.02;;
74616;SDS011;63123;50.906;4.198;2022-09-30T18:35:19;1.33;;;1.20;;
74616;SDS011;63123;50.906;4.198;2022-09-30T18:37:47;1.25;;;1.15;;
74616;SDS011;63123;50.906;4.198;2022-09-30T18:40:17;1.10;;;1.00;;
74616;SDS011;63123;50.906;4.198;2022-09-30T18:42:44;1.17;;;1.08;;
74616;SDS011;63123;50.906;4.198;2022-09-30T18:45:10;1.20;;;1.08;;
74616;SDS011;63123;50.906;4.198;2022-09-30T18:47:40;1.35;;;1.25;;
74616;SDS011;63123;50.906;4.198;2022-09-30T18:50:08;1.10;;;1.00;;
74616;SDS011;63123;50.906;4.198;2022-09-30T18:52:36;1.33;;;0.90;;